CCA3411 ZPPP-OMDB
Flight info
| Callsign | CCA3411 |
|---|---|
| Flight time | N/A |
| Altitude | 38100 |
| Route | K0928S1100 GUL9W GULOT A599 LINSO/N0502F360 A599 CTG B465 CEA A791 JJS/N0498F380 A791 PRA A325 PARET A454 PASOV B540 MIVEK P574 IMPED IMPED3C |
| Aircraft | A35K/H-SDE2E3GHIJ3J4J5LM1ORWXY/LB1D1 |
Departure
| Time | 2026-05-06 09:44 |
|---|---|
| Airport | Kunming Changshui International Airport (ZPPP) |
Arrival
| Time | N/A |
|---|---|
| Airport | Dubai International Airport (OMDB) |
| Time | Latitude | Longitude | Altitude | Speed | Heading |
|---|---|---|---|---|---|
| 2026-05-06 09:30 | 25.10133 | 102.92124 | 6901 ft | 0 kts | 217° |
| 2026-05-06 09:35 | 25.10131 | 102.92119 | 6901 ft | 2 kts | 241° |
| 2026-05-06 09:36 | 25.10132 | 102.92099 | 6902 ft | 3 kts | 278° |
| 2026-05-06 09:36 | 25.10137 | 102.92079 | 6902 ft | 3 kts | 289° |
| 2026-05-06 09:36 | 25.10145 | 102.92058 | 6902 ft | 3 kts | 292° |
| 2026-05-06 09:36 | 25.10152 | 102.92037 | 6902 ft | 3 kts | 292° |
| 2026-05-06 09:37 | 25.10160 | 102.92017 | 6902 ft | 3 kts | 292° |
| 2026-05-06 09:37 | 25.10168 | 102.91996 | 6902 ft | 3 kts | 292° |
| 2026-05-06 09:37 | 25.10176 | 102.91975 | 6902 ft | 3 kts | 292° |
| 2026-05-06 09:37 | 25.10184 | 102.91955 | 6902 ft | 3 kts | 292° |
| 2026-05-06 09:38 | 25.10191 | 102.91934 | 6902 ft | 3 kts | 292° |
| 2026-05-06 09:38 | 25.10199 | 102.91913 | 6902 ft | 3 kts | 291° |
| 2026-05-06 09:38 | 25.10206 | 102.91892 | 6902 ft | 3 kts | 291° |
| 2026-05-06 09:38 | 25.10213 | 102.91871 | 6902 ft | 3 kts | 290° |
| 2026-05-06 09:39 | 25.10220 | 102.91851 | 6902 ft | 3 kts | 290° |
| 2026-05-06 09:39 | 25.10227 | 102.91829 | 6902 ft | 3 kts | 289° |
| 2026-05-06 09:39 | 25.10234 | 102.91808 | 6902 ft | 3 kts | 288° |
| 2026-05-06 09:39 | 25.10240 | 102.91787 | 6902 ft | 3 kts | 287° |
| 2026-05-06 09:40 | 25.10245 | 102.91766 | 6902 ft | 3 kts | 285° |
| 2026-05-06 09:40 | 25.10250 | 102.91744 | 6902 ft | 3 kts | 281° |
| 2026-05-06 09:40 | 25.10249 | 102.91718 | 6902 ft | 1 kts | 219° |
| 2026-05-06 09:41 | 25.10235 | 102.91705 | 6903 ft | 0 kts | 39° |
| 2026-05-06 09:43 | 25.10363 | 102.91824 | 6921 ft | 62 kts | 38° |
| 2026-05-06 09:43 | 25.10919 | 102.92301 | 6901 ft | 138 kts | 40° |
| 2026-05-06 09:43 | 25.11872 | 102.93085 | 6987 ft | 194 kts | 37° |
| 2026-05-06 09:44 | 25.12858 | 102.94119 | 7762 ft | 197 kts | 44° |
| 2026-05-06 09:44 | 25.13829 | 102.95258 | 8256 ft | 212 kts | 44° |
| 2026-05-06 09:44 | 25.14897 | 102.96495 | 8598 ft | 234 kts | 44° |
| 2026-05-06 09:45 | 25.20247 | 103.02538 | 10808 ft | 287 kts | 42° |
| 2026-05-06 09:45 | 25.21663 | 103.04126 | 11606 ft | 293 kts | 41° |
| 2026-05-06 09:46 | 25.23105 | 103.05741 | 12375 ft | 297 kts | 41° |
| 2026-05-06 09:46 | 25.24558 | 103.07368 | 13209 ft | 299 kts | 41° |
| 2026-05-06 09:46 | 25.26024 | 103.09009 | 14046 ft | 301 kts | 40° |
| 2026-05-06 09:46 | 25.27527 | 103.10645 | 14750 ft | 304 kts | 39° |
| 2026-05-06 09:47 | 25.29116 | 103.12176 | 15423 ft | 305 kts | 30° |
| 2026-05-06 09:47 | 25.30992 | 103.13194 | 16112 ft | 299 kts | 9° |
| 2026-05-06 09:47 | 25.33030 | 103.13355 | 16811 ft | 291 kts | 345° |
| 2026-05-06 09:47 | 25.34857 | 103.12546 | 17498 ft | 282 kts | 318° |
| 2026-05-06 09:48 | 25.36018 | 103.10855 | 18166 ft | 279 kts | 289° |
| 2026-05-06 09:48 | 25.36182 | 103.08740 | 18749 ft | 282 kts | 259° |
| 2026-05-06 09:48 | 25.35359 | 103.06760 | 19277 ft | 291 kts | 239° |
| 2026-05-06 09:48 | 25.34461 | 103.04771 | 19807 ft | 290 kts | 259° |
| 2026-05-06 09:49 | 25.34514 | 103.02600 | 20408 ft | 290 kts | 287° |
| 2026-05-06 09:49 | 25.35451 | 103.00611 | 21027 ft | 295 kts | 300° |
| 2026-05-06 09:49 | 25.36648 | 102.98747 | 21609 ft | 300 kts | 303° |
| 2026-05-06 09:49 | 25.37906 | 102.96890 | 22211 ft | 303 kts | 303° |
| 2026-05-06 09:50 | 25.39187 | 102.95024 | 22778 ft | 307 kts | 303° |
| 2026-05-06 09:50 | 25.40481 | 102.93147 | 23336 ft | 310 kts | 303° |
| 2026-05-06 09:50 | 25.41759 | 102.91183 | 23755 ft | 318 kts | 300° |
| 2026-05-06 09:50 | 25.43013 | 102.89108 | 23981 ft | 331 kts | 300° |
| 2026-05-06 09:51 | 25.44287 | 102.86998 | 24169 ft | 345 kts | 300° |
| 2026-05-06 09:51 | 25.45683 | 102.84713 | 24416 ft | 358 kts | 300° |
| 2026-05-06 09:51 | 25.46982 | 102.82320 | 24664 ft | 368 kts | 292° |
| 2026-05-06 09:51 | 25.47793 | 102.79639 | 24891 ft | 376 kts | 279° |
| 2026-05-06 09:52 | 25.47904 | 102.76709 | 25107 ft | 387 kts | 262° |
| 2026-05-06 09:52 | 25.47094 | 102.73839 | 25349 ft | 400 kts | 244° |
| 2026-05-06 09:52 | 25.45418 | 102.71329 | 25600 ft | 416 kts | 227° |
| 2026-05-06 09:52 | 25.43013 | 102.69430 | 25827 ft | 435 kts | 210° |
| 2026-05-06 09:53 | 25.40079 | 102.68359 | 26111 ft | 453 kts | 194° |
| 2026-05-06 09:53 | 25.36944 | 102.67796 | 26476 ft | 459 kts | 195° |
| 2026-05-06 09:53 | 25.33859 | 102.66883 | 26929 ft | 459 kts | 202° |
| 2026-05-06 09:53 | 25.30877 | 102.65613 | 27439 ft | 461 kts | 207° |
| 2026-05-06 09:54 | 25.27932 | 102.64098 | 27980 ft | 463 kts | 210° |
| 2026-05-06 09:54 | 25.25091 | 102.62484 | 28482 ft | 465 kts | 212° |
| 2026-05-06 09:54 | 25.22224 | 102.60774 | 28984 ft | 469 kts | 213° |
| 2026-05-06 09:54 | 25.19375 | 102.59025 | 29464 ft | 472 kts | 213° |
| 2026-05-06 09:55 | 25.16504 | 102.57235 | 29860 ft | 476 kts | 213° |
| 2026-05-06 09:55 | 25.13624 | 102.55415 | 30284 ft | 478 kts | 214° |
| 2026-05-06 09:55 | 25.10839 | 102.53395 | 30682 ft | 476 kts | 221° |
| 2026-05-06 09:55 | 25.08418 | 102.50992 | 31020 ft | 475 kts | 230° |
| 2026-05-06 09:56 | 25.06361 | 102.48147 | 31389 ft | 474 kts | 238° |
| 2026-05-06 09:56 | 25.04705 | 102.45003 | 31789 ft | 473 kts | 244° |
| 2026-05-06 09:56 | 25.03190 | 102.41795 | 32458 ft | 467 kts | 244° |
| 2026-05-06 09:56 | 25.01708 | 102.38636 | 33192 ft | 462 kts | 244° |
| 2026-05-06 09:57 | 25.00229 | 102.35496 | 33733 ft | 460 kts | 244° |
| 2026-05-06 09:57 | 24.98753 | 102.32384 | 34214 ft | 457 kts | 244° |
| 2026-05-06 09:57 | 24.97312 | 102.29354 | 34658 ft | 455 kts | 244° |
| 2026-05-06 09:57 | 24.95850 | 102.26282 | 35052 ft | 455 kts | 244° |
| 2026-05-06 09:58 | 24.94366 | 102.23168 | 35448 ft | 454 kts | 244° |
| 2026-05-06 09:58 | 24.92898 | 102.20087 | 35848 ft | 452 kts | 244° |
| 2026-05-06 09:58 | 24.91438 | 102.17026 | 36234 ft | 451 kts | 244° |
| 2026-05-06 09:58 | 24.89918 | 102.13838 | 36635 ft | 449 kts | 245° |
| 2026-05-06 09:59 | 24.88534 | 102.10938 | 37009 ft | 448 kts | 245° |
| 2026-05-06 09:59 | 24.87091 | 102.07924 | 37386 ft | 447 kts | 245° |
| 2026-05-06 09:59 | 24.85634 | 102.04882 | 37763 ft | 445 kts | 245° |
| 2026-05-06 09:59 | 24.84197 | 102.01872 | 38028 ft | 444 kts | 245° |
| 2026-05-06 10:00 | 24.81323 | 101.95870 | 38074 ft | 441 kts | 245° |
| 2026-05-06 10:00 | 24.78450 | 101.89877 | 38065 ft | 443 kts | 245° |
| 2026-05-06 10:01 | 24.75590 | 101.83927 | 38035 ft | 444 kts | 245° |
| 2026-05-06 10:01 | 24.72703 | 101.77927 | 38033 ft | 443 kts | 245° |
| 2026-05-06 10:02 | 24.69811 | 101.71921 | 38037 ft | 444 kts | 245° |
| 2026-05-06 10:02 | 24.66926 | 101.65935 | 38025 ft | 443 kts | 244° |
| 2026-05-06 10:03 | 24.64033 | 101.59943 | 38026 ft | 443 kts | 244° |
| 2026-05-06 10:03 | 24.61138 | 101.53965 | 38016 ft | 443 kts | 244° |
| 2026-05-06 10:04 | 24.58221 | 101.48040 | 38004 ft | 443 kts | 244° |
| 2026-05-06 10:04 | 24.55264 | 101.42056 | 38022 ft | 448 kts | 244° |
| 2026-05-06 10:05 | 24.52270 | 101.36008 | 38023 ft | 451 kts | 244° |
| 2026-05-06 10:05 | 24.49292 | 101.29996 | 38024 ft | 451 kts | 244° |
| 2026-05-06 10:06 | 24.46305 | 101.23960 | 38019 ft | 450 kts | 244° |
| 2026-05-06 10:06 | 24.43305 | 101.17904 | 38022 ft | 450 kts | 244° |
| 2026-05-06 10:07 | 24.40315 | 101.11878 | 38021 ft | 449 kts | 243° |
| 2026-05-06 10:07 | 24.37340 | 101.05892 | 38023 ft | 449 kts | 243° |
| 2026-05-06 10:08 | 24.34850 | 101.00885 | 38017 ft | 449 kts | 243° |
| 2026-05-06 10:08 | 24.31348 | 100.93861 | 38011 ft | 449 kts | 243° |
| 2026-05-06 10:09 | 24.28345 | 100.87842 | 38011 ft | 452 kts | 243° |
| 2026-05-06 10:09 | 24.25829 | 100.82806 | 38007 ft | 454 kts | 244° |
| 2026-05-06 10:10 | 24.22296 | 100.75727 | 38000 ft | 455 kts | 244° |
| 2026-05-06 10:10 | 24.19248 | 100.69645 | 37983 ft | 454 kts | 243° |
| 2026-05-06 10:11 | 24.16717 | 100.64599 | 37994 ft | 455 kts | 243° |
| 2026-05-06 10:11 | 24.13670 | 100.58528 | 37983 ft | 454 kts | 244° |
| 2026-05-06 10:12 | 24.10617 | 100.52470 | 37983 ft | 454 kts | 243° |
| 2026-05-06 10:12 | 24.07528 | 100.46442 | 37989 ft | 454 kts | 243° |
| 2026-05-06 10:13 | 24.04421 | 100.40417 | 37983 ft | 454 kts | 243° |
| 2026-05-06 10:13 | 24.01319 | 100.34386 | 37978 ft | 455 kts | 243° |
| 2026-05-06 10:14 | 23.98215 | 100.28333 | 37980 ft | 456 kts | 243° |
| 2026-05-06 10:14 | 23.95116 | 100.22304 | 37973 ft | 457 kts | 243° |
| 2026-05-06 10:15 | 23.91997 | 100.16251 | 37978 ft | 457 kts | 242° |
| 2026-05-06 10:15 | 23.88876 | 100.10197 | 37977 ft | 457 kts | 242° |
| 2026-05-06 10:16 | 23.85754 | 100.04150 | 37978 ft | 457 kts | 242° |
| 2026-05-06 10:16 | 23.82624 | 99.98093 | 37977 ft | 457 kts | 242° |
| 2026-05-06 10:17 | 23.79510 | 99.92085 | 37978 ft | 458 kts | 242° |
| 2026-05-06 10:17 | 23.76377 | 99.86036 | 37978 ft | 457 kts | 242° |
| 2026-05-06 10:18 | 23.73235 | 99.79986 | 37982 ft | 460 kts | 242° |
| 2026-05-06 10:18 | 23.70062 | 99.73879 | 37979 ft | 463 kts | 242° |
| 2026-05-06 10:19 | 23.66886 | 99.67763 | 37974 ft | 463 kts | 242° |
| 2026-05-06 10:19 | 23.63706 | 99.61655 | 37965 ft | 463 kts | 242° |
| 2026-05-06 10:20 | 23.60515 | 99.55547 | 37971 ft | 463 kts | 242° |
| 2026-05-06 10:20 | 23.57331 | 99.49447 | 37978 ft | 463 kts | 242° |
| 2026-05-06 10:21 | 23.54171 | 99.43392 | 37979 ft | 462 kts | 242° |
| 2026-05-06 10:21 | 23.51640 | 99.36971 | 37970 ft | 460 kts | 251° |
| 2026-05-06 10:22 | 23.49544 | 99.30383 | 37965 ft | 460 kts | 252° |
| 2026-05-06 10:22 | 23.47509 | 99.23771 | 37963 ft | 460 kts | 252° |
| 2026-05-06 10:23 | 23.45462 | 99.17147 | 37974 ft | 463 kts | 252° |
| 2026-05-06 10:23 | 23.43394 | 99.10500 | 37966 ft | 464 kts | 252° |
| 2026-05-06 10:24 | 23.41313 | 99.03845 | 37965 ft | 463 kts | 252° |
| 2026-05-06 10:24 | 23.39240 | 98.97227 | 37961 ft | 462 kts | 252° |
| 2026-05-06 10:25 | 23.37166 | 98.90612 | 37956 ft | 461 kts | 252° |
| 2026-05-06 10:25 | 23.35001 | 98.84033 | 37948 ft | 462 kts | 251° |
| 2026-05-06 10:26 | 23.32782 | 98.77514 | 37941 ft | 462 kts | 251° |
| 2026-05-06 10:26 | 23.30556 | 98.70946 | 37960 ft | 462 kts | 251° |
| 2026-05-06 10:27 | 23.28350 | 98.64401 | 37941 ft | 460 kts | 251° |
| 2026-05-06 10:27 | 23.26148 | 98.57858 | 37943 ft | 460 kts | 251° |
| 2026-05-06 10:28 | 23.23944 | 98.51321 | 37940 ft | 460 kts | 251° |
| 2026-05-06 10:28 | 23.21736 | 98.44783 | 37942 ft | 460 kts | 251° |
| 2026-05-06 10:29 | 23.19532 | 98.38272 | 37939 ft | 460 kts | 251° |
| 2026-05-06 10:29 | 23.17318 | 98.31737 | 37952 ft | 461 kts | 251° |
| 2026-05-06 10:30 | 23.15097 | 98.25194 | 37950 ft | 461 kts | 251° |
| 2026-05-06 10:30 | 23.12870 | 98.18642 | 37943 ft | 461 kts | 251° |
| 2026-05-06 10:31 | 23.10659 | 98.12147 | 37944 ft | 461 kts | 251° |
| 2026-05-06 10:31 | 23.08431 | 98.05611 | 37941 ft | 461 kts | 251° |
| 2026-05-06 10:32 | 23.06199 | 97.99073 | 37936 ft | 461 kts | 251° |
| 2026-05-06 10:32 | 23.03964 | 97.92538 | 37939 ft | 462 kts | 251° |
| 2026-05-06 10:33 | 23.01723 | 97.85997 | 37925 ft | 462 kts | 251° |
| 2026-05-06 10:33 | 22.99478 | 97.79454 | 37920 ft | 463 kts | 251° |
| 2026-05-06 10:34 | 22.97868 | 97.72709 | 37925 ft | 461 kts | 262° |
| 2026-05-06 10:34 | 22.97050 | 97.65814 | 37921 ft | 461 kts | 264° |
| 2026-05-06 10:35 | 22.96353 | 97.58915 | 37934 ft | 461 kts | 264° |
| 2026-05-06 10:35 | 22.95655 | 97.51997 | 37929 ft | 460 kts | 264° |
| 2026-05-06 10:36 | 22.94944 | 97.45135 | 37933 ft | 460 kts | 264° |
| 2026-05-06 10:36 | 22.94218 | 97.38231 | 37929 ft | 460 kts | 264° |
| 2026-05-06 10:37 | 22.93487 | 97.31327 | 37915 ft | 460 kts | 264° |
| 2026-05-06 10:37 | 22.92751 | 97.24395 | 37932 ft | 463 kts | 264° |
| 2026-05-06 10:38 | 22.92015 | 97.17504 | 37947 ft | 463 kts | 264° |
| 2026-05-06 10:38 | 22.91271 | 97.10560 | 37942 ft | 463 kts | 264° |
| 2026-05-06 10:39 | 22.90525 | 97.03625 | 37941 ft | 463 kts | 264° |
| 2026-05-06 10:39 | 22.89776 | 96.96683 | 37939 ft | 463 kts | 263° |
| 2026-05-06 10:40 | 22.89023 | 96.89737 | 37941 ft | 463 kts | 264° |
| 2026-05-06 10:40 | 22.88268 | 96.82799 | 37941 ft | 463 kts | 263° |
| 2026-05-06 10:41 | 22.87489 | 96.75685 | 37936 ft | 461 kts | 263° |
| 2026-05-06 10:41 | 22.86524 | 96.66906 | 37928 ft | 461 kts | 263° |
| 2026-05-06 10:42 | 22.85762 | 96.59996 | 37927 ft | 461 kts | 263° |
| 2026-05-06 10:42 | 22.84998 | 96.53096 | 37921 ft | 461 kts | 263° |
| 2026-05-06 10:43 | 22.84218 | 96.46091 | 37927 ft | 461 kts | 263° |
| 2026-05-06 10:44 | 22.83079 | 96.35900 | 37908 ft | 459 kts | 263° |
| 2026-05-06 10:44 | 22.82307 | 96.29043 | 37906 ft | 459 kts | 263° |
| 2026-05-06 10:45 | 22.81530 | 96.22175 | 37880 ft | 459 kts | 263° |
| 2026-05-06 10:45 | 22.80754 | 96.15309 | 37877 ft | 459 kts | 263° |
| 2026-05-06 10:46 | 22.79976 | 96.08447 | 37861 ft | 459 kts | 263° |
| 2026-05-06 10:46 | 22.79195 | 96.01594 | 37863 ft | 457 kts | 263° |
| 2026-05-06 10:47 | 22.78412 | 95.94760 | 37859 ft | 457 kts | 263° |
| 2026-05-06 10:47 | 22.77629 | 95.87952 | 37841 ft | 457 kts | 263° |
| 2026-05-06 10:48 | 22.76841 | 95.81121 | 37845 ft | 457 kts | 263° |
| 2026-05-06 10:48 | 22.76049 | 95.74287 | 37840 ft | 457 kts | 263° |
| 2026-05-06 10:49 | 22.75255 | 95.67462 | 37840 ft | 457 kts | 263° |
| 2026-05-06 10:49 | 22.74461 | 95.60665 | 37839 ft | 457 kts | 263° |
| 2026-05-06 10:50 | 22.73660 | 95.53830 | 37840 ft | 457 kts | 263° |
| 2026-05-06 10:50 | 22.72857 | 95.46996 | 37846 ft | 457 kts | 263° |
| 2026-05-06 10:51 | 22.72049 | 95.40155 | 37843 ft | 457 kts | 263° |
| 2026-05-06 10:51 | 22.71239 | 95.33320 | 37845 ft | 457 kts | 263° |
| 2026-05-06 10:52 | 22.70427 | 95.26493 | 37845 ft | 456 kts | 263° |
| 2026-05-06 10:52 | 22.69613 | 95.19677 | 37840 ft | 456 kts | 263° |
| 2026-05-06 10:53 | 22.68800 | 95.12886 | 37850 ft | 457 kts | 263° |
| 2026-05-06 10:53 | 22.67978 | 95.06051 | 37850 ft | 457 kts | 263° |
| 2026-05-06 10:54 | 22.67153 | 94.99210 | 37852 ft | 457 kts | 263° |
| 2026-05-06 10:54 | 22.66331 | 94.92424 | 37851 ft | 457 kts | 263° |
| 2026-05-06 10:55 | 22.65502 | 94.85604 | 37862 ft | 456 kts | 262° |
| 2026-05-06 10:55 | 22.64669 | 94.78780 | 37857 ft | 456 kts | 262° |
| 2026-05-06 10:56 | 22.63840 | 94.72007 | 37864 ft | 456 kts | 262° |
| 2026-05-06 10:56 | 22.63002 | 94.65193 | 37864 ft | 456 kts | 262° |
| 2026-05-06 10:57 | 22.62163 | 94.58383 | 37868 ft | 456 kts | 262° |
| 2026-05-06 10:57 | 22.61320 | 94.51576 | 37870 ft | 457 kts | 262° |
| 2026-05-06 10:58 | 22.60474 | 94.44756 | 37876 ft | 457 kts | 263° |
| 2026-05-06 10:58 | 22.59768 | 94.39093 | 37873 ft | 457 kts | 262° |
| 2026-05-06 10:59 | 22.58916 | 94.32271 | 37872 ft | 457 kts | 262° |
| 2026-05-06 10:59 | 22.58061 | 94.25456 | 37883 ft | 457 kts | 263° |
| 2026-05-06 11:00 | 22.57203 | 94.18630 | 37888 ft | 457 kts | 262° |
| 2026-05-06 11:00 | 22.56341 | 94.11814 | 37885 ft | 457 kts | 262° |
| 2026-05-06 11:01 | 22.55477 | 94.04998 | 37908 ft | 457 kts | 262° |
| 2026-05-06 11:01 | 22.54610 | 93.98181 | 37902 ft | 457 kts | 262° |
| 2026-05-06 11:02 | 22.53745 | 93.91406 | 37928 ft | 457 kts | 262° |
| 2026-05-06 11:02 | 22.52872 | 93.84591 | 37931 ft | 457 kts | 262° |
| 2026-05-06 11:03 | 22.51995 | 93.77771 | 37974 ft | 458 kts | 262° |
| 2026-05-06 11:03 | 22.51113 | 93.70927 | 37974 ft | 460 kts | 262° |
| 2026-05-06 11:04 | 22.50229 | 93.64078 | 37968 ft | 460 kts | 262° |
| 2026-05-06 11:04 | 22.49339 | 93.57228 | 37970 ft | 460 kts | 262° |
| 2026-05-06 11:05 | 22.48446 | 93.50374 | 37992 ft | 460 kts | 262° |
| 2026-05-06 11:05 | 22.47556 | 93.43565 | 37989 ft | 460 kts | 262° |
| 2026-05-06 11:06 | 22.46659 | 93.36724 | 37991 ft | 460 kts | 262° |
| 2026-05-06 11:06 | 22.45758 | 93.29872 | 37991 ft | 460 kts | 262° |
| 2026-05-06 11:07 | 22.44855 | 93.23024 | 37992 ft | 460 kts | 262° |
| 2026-05-06 11:07 | 22.43947 | 93.16174 | 37968 ft | 459 kts | 262° |
| 2026-05-06 11:08 | 22.43042 | 93.09348 | 37976 ft | 459 kts | 262° |
| 2026-05-06 11:08 | 22.42130 | 93.02512 | 37948 ft | 459 kts | 262° |
| 2026-05-06 11:09 | 22.41218 | 92.95693 | 37944 ft | 458 kts | 262° |
| 2026-05-06 11:09 | 22.40312 | 92.88935 | 37929 ft | 457 kts | 262° |
| 2026-05-06 11:10 | 22.39393 | 92.82118 | 37922 ft | 458 kts | 262° |
| 2026-05-06 11:10 | 22.38475 | 92.75308 | 37927 ft | 458 kts | 262° |
| 2026-05-06 11:11 | 22.37561 | 92.68539 | 37912 ft | 457 kts | 262° |
| 2026-05-06 11:11 | 22.36646 | 92.61744 | 37909 ft | 455 kts | 262° |
| 2026-05-06 11:12 | 22.35731 | 92.54979 | 37900 ft | 455 kts | 262° |
| 2026-05-06 11:12 | 22.34814 | 92.48218 | 37898 ft | 455 kts | 262° |
| 2026-05-06 11:13 | 22.33892 | 92.41459 | 37893 ft | 455 kts | 262° |
| 2026-05-06 11:13 | 22.32975 | 92.34745 | 37891 ft | 455 kts | 262° |
| 2026-05-06 11:14 | 22.32046 | 92.27958 | 37894 ft | 454 kts | 261° |
| 2026-05-06 11:14 | 22.29540 | 92.09746 | 37891 ft | 452 kts | 261° |
| 2026-05-06 11:15 | 22.26628 | 91.88843 | 37892 ft | 452 kts | 261° |
| 2026-05-06 11:15 | 22.26351 | 91.77817 | 37873 ft | 452 kts | 274° |
| 2026-05-06 11:15 | 22.27587 | 91.66811 | 37877 ft | 453 kts | 276° |
| 2026-05-06 11:16 | 22.30156 | 91.44792 | 37892 ft | 453 kts | 275° |
| 2026-05-06 11:16 | 22.32794 | 91.22890 | 37884 ft | 453 kts | 276° |
| 2026-05-06 11:17 | 22.35520 | 91.00784 | 37888 ft | 453 kts | 276° |
| 2026-05-06 11:17 | 22.36609 | 90.91850 | 37883 ft | 453 kts | 276° |
| 2026-05-06 11:18 | 22.39012 | 90.71986 | 37890 ft | 453 kts | 275° |
| 2026-05-06 11:18 | 22.41642 | 90.50010 | 37885 ft | 452 kts | 275° |
| 2026-05-06 11:19 | 22.44216 | 90.28248 | 37883 ft | 451 kts | 275° |
| 2026-05-06 11:19 | 22.46756 | 90.06512 | 37882 ft | 452 kts | 275° |
| 2026-05-06 11:20 | 22.49292 | 89.84557 | 37876 ft | 452 kts | 275° |
| 2026-05-06 11:20 | 22.51805 | 89.62535 | 37881 ft | 452 kts | 275° |
| 2026-05-06 11:21 | 22.54264 | 89.40718 | 37880 ft | 452 kts | 275° |
| 2026-05-06 11:21 | 22.56704 | 89.18795 | 37871 ft | 452 kts | 275° |
| 2026-05-06 11:22 | 22.59116 | 88.96853 | 37871 ft | 452 kts | 275° |
| 2026-05-06 11:22 | 22.62582 | 88.75016 | 37855 ft | 453 kts | 278° |
| 2026-05-06 11:23 | 22.66234 | 88.53099 | 37848 ft | 453 kts | 278° |
| 2026-05-06 11:23 | 22.68531 | 88.31148 | 37851 ft | 452 kts | 272° |
| 2026-05-06 11:24 | 22.69703 | 88.13116 | 37846 ft | 452 kts | 273° |
| 2026-05-06 11:24 | 22.70139 | 88.06440 | 37856 ft | 452 kts | 273° |
| 2026-05-06 11:25 | 22.70573 | 87.99759 | 37862 ft | 452 kts | 273° |
| 2026-05-06 11:25 | 22.71014 | 87.92920 | 37866 ft | 452 kts | 272° |
| 2026-05-06 11:26 | 22.72711 | 87.66124 | 37866 ft | 451 kts | 273° |
| 2026-05-06 11:26 | 22.75182 | 87.25954 | 37871 ft | 450 kts | 272° |
| 2026-05-06 11:27 | 22.77573 | 86.85122 | 37894 ft | 447 kts | 272° |
| 2026-05-06 11:27 | 22.79873 | 86.44252 | 37913 ft | 447 kts | 272° |
| 2026-05-06 11:28 | 22.82425 | 86.03295 | 37856 ft | 448 kts | 274° |
| 2026-05-06 11:28 | 22.85769 | 85.62871 | 37939 ft | 447 kts | 274° |
| 2026-05-06 11:29 | 22.88968 | 85.22122 | 37955 ft | 448 kts | 274° |
| 2026-05-06 11:29 | 22.92078 | 84.81648 | 37968 ft | 447 kts | 274° |
| 2026-05-06 11:30 | 22.95084 | 84.41365 | 37966 ft | 447 kts | 273° |
| 2026-05-06 11:30 | 22.97896 | 84.00289 | 37941 ft | 450 kts | 272° |
| 2026-05-06 11:31 | 23.00039 | 83.58580 | 37910 ft | 451 kts | 272° |
| 2026-05-06 11:31 | 23.02088 | 83.17812 | 37889 ft | 446 kts | 273° |
| 2026-05-06 11:32 | 23.04050 | 82.76665 | 37874 ft | 445 kts | 273° |
| 2026-05-06 11:32 | 23.05897 | 82.35660 | 37871 ft | 443 kts | 272° |
| 2026-05-06 11:33 | 23.08050 | 81.95011 | 37873 ft | 443 kts | 274° |
| 2026-05-06 11:33 | 23.10466 | 81.54668 | 37877 ft | 443 kts | 274° |
| 2026-05-06 11:34 | 23.12786 | 81.14168 | 37879 ft | 442 kts | 274° |
| 2026-05-06 11:34 | 23.15012 | 80.73627 | 37903 ft | 441 kts | 274° |
| 2026-05-06 11:35 | 23.17169 | 80.33513 | 37907 ft | 436 kts | 273° |
| 2026-05-06 11:35 | 23.19192 | 79.93025 | 37903 ft | 436 kts | 272° |
| 2026-05-06 11:36 | 23.20834 | 79.53201 | 37907 ft | 436 kts | 272° |
| 2026-05-06 11:36 | 23.21470 | 79.12993 | 37908 ft | 438 kts | 271° |
| 2026-05-06 11:37 | 23.22085 | 78.72483 | 37910 ft | 438 kts | 272° |
| 2026-05-06 11:37 | 23.24057 | 78.32239 | 37914 ft | 439 kts | 273° |
| 2026-05-06 11:38 | 23.25876 | 77.91923 | 37914 ft | 439 kts | 273° |
| 2026-05-06 11:38 | 23.27597 | 77.51555 | 37905 ft | 438 kts | 273° |
| 2026-05-06 11:39 | 23.34534 | 77.12919 | 37908 ft | 440 kts | 288° |
| 2026-05-06 11:39 | 23.45792 | 76.75308 | 37915 ft | 440 kts | 287° |
| 2026-05-06 11:40 | 23.56987 | 76.37439 | 37918 ft | 440 kts | 287° |
| 2026-05-06 11:40 | 23.68097 | 75.99475 | 37915 ft | 440 kts | 287° |
| 2026-05-06 11:41 | 23.79063 | 75.61416 | 37909 ft | 441 kts | 287° |
| 2026-05-06 11:41 | 23.89977 | 75.23171 | 37921 ft | 440 kts | 287° |
| 2026-05-06 11:42 | 24.00769 | 74.84936 | 37918 ft | 438 kts | 287° |
| 2026-05-06 11:42 | 24.12117 | 74.47196 | 37915 ft | 438 kts | 288° |
| 2026-05-06 11:43 | 24.23768 | 74.09147 | 37910 ft | 437 kts | 289° |
| 2026-05-06 11:43 | 24.35650 | 73.70972 | 37893 ft | 438 kts | 289° |
| 2026-05-06 11:44 | 24.53234 | 73.13694 | 37898 ft | 438 kts | 289° |
| 2026-05-06 11:44 | 24.64805 | 72.75505 | 37886 ft | 437 kts | 289° |
| 2026-05-06 11:45 | 24.76403 | 72.36852 | 37856 ft | 437 kts | 289° |
| 2026-05-06 11:45 | 24.87916 | 71.98075 | 37835 ft | 436 kts | 289° |
| 2026-05-06 11:46 | 24.99206 | 71.59636 | 37816 ft | 436 kts | 289° |
| 2026-05-06 11:46 | 25.10437 | 71.20990 | 37804 ft | 435 kts | 289° |
| 2026-05-06 11:47 | 25.21497 | 70.82534 | 37812 ft | 436 kts | 288° |
| 2026-05-06 11:47 | 25.32724 | 70.44061 | 37815 ft | 435 kts | 289° |
| 2026-05-06 11:48 | 25.43949 | 70.05245 | 37813 ft | 436 kts | 289° |
| 2026-05-06 11:48 | 25.49922 | 69.65568 | 37810 ft | 451 kts | 259° |
| 2026-05-06 11:49 | 25.40148 | 69.24860 | 37811 ft | 449 kts | 260° |
| 2026-05-06 11:49 | 25.32289 | 68.90825 | 37808 ft | 451 kts | 260° |
| 2026-05-06 11:50 | 25.22714 | 68.49648 | 37823 ft | 456 kts | 259° |
| 2026-05-06 11:50 | 25.12973 | 68.08571 | 37843 ft | 457 kts | 258° |
| 2026-05-06 11:51 | 25.03180 | 67.67736 | 37864 ft | 457 kts | 258° |
| 2026-05-06 11:51 | 24.93324 | 67.26925 | 37875 ft | 458 kts | 258° |
| 2026-05-06 11:52 | 24.93357 | 67.06413 | 37873 ft | 451 kts | 286° |
| 2026-05-06 11:52 | 24.98484 | 66.86287 | 37898 ft | 452 kts | 284° |
| 2026-05-06 11:52 | 25.07569 | 66.45393 | 37886 ft | 453 kts | 284° |
| 2026-05-06 11:53 | 25.15760 | 66.08167 | 37880 ft | 453 kts | 284° |
| 2026-05-06 11:53 | 25.17225 | 66.01478 | 37880 ft | 453 kts | 284° |
| 2026-05-06 11:54 | 25.18718 | 65.94656 | 37881 ft | 453 kts | 284° |
| 2026-05-06 11:54 | 25.20180 | 65.87954 | 37876 ft | 453 kts | 284° |
| 2026-05-06 11:55 | 25.21649 | 65.81197 | 37875 ft | 454 kts | 284° |
| 2026-05-06 11:55 | 25.23122 | 65.74406 | 37880 ft | 454 kts | 284° |
| 2026-05-06 11:56 | 25.24587 | 65.67632 | 37877 ft | 454 kts | 284° |
| 2026-05-06 11:56 | 25.26042 | 65.60896 | 37874 ft | 454 kts | 284° |
| 2026-05-06 11:57 | 25.27501 | 65.54120 | 37880 ft | 454 kts | 284° |
| 2026-05-06 11:57 | 25.28960 | 65.47329 | 37787 ft | 454 kts | 284° |
| 2026-05-06 11:58 | 25.30416 | 65.40539 | 37782 ft | 454 kts | 284° |
| 2026-05-06 11:58 | 25.31867 | 65.33756 | 37786 ft | 453 kts | 284° |
| 2026-05-06 11:59 | 25.33312 | 65.26975 | 37788 ft | 452 kts | 284° |
| 2026-05-06 11:59 | 25.34748 | 65.20215 | 37792 ft | 452 kts | 284° |
| 2026-05-06 12:00 | 25.36187 | 65.13432 | 37791 ft | 452 kts | 284° |
| 2026-05-06 12:00 | 25.37615 | 65.06686 | 37791 ft | 452 kts | 284° |
| 2026-05-06 12:01 | 25.39053 | 64.99875 | 37789 ft | 452 kts | 284° |
| 2026-05-06 12:01 | 25.40483 | 64.93094 | 37787 ft | 453 kts | 284° |
| 2026-05-06 12:02 | 25.41387 | 64.86240 | 37788 ft | 455 kts | 272° |
| 2026-05-06 12:02 | 25.40571 | 64.79293 | 37790 ft | 459 kts | 258° |
| 2026-05-06 12:03 | 25.38814 | 64.72589 | 37785 ft | 461 kts | 256° |
| 2026-05-06 12:03 | 25.36879 | 64.65814 | 37785 ft | 461 kts | 256° |
| 2026-05-06 12:04 | 25.34955 | 64.59041 | 37782 ft | 461 kts | 256° |
| 2026-05-06 12:04 | 25.33054 | 64.52256 | 37782 ft | 461 kts | 256° |
| 2026-05-06 12:05 | 25.31173 | 64.45516 | 37783 ft | 461 kts | 256° |
| 2026-05-06 12:05 | 25.29281 | 64.38746 | 37782 ft | 461 kts | 256° |
| 2026-05-06 12:06 | 25.27385 | 64.31981 | 37782 ft | 461 kts | 256° |
| 2026-05-06 12:06 | 25.25482 | 64.25204 | 37782 ft | 461 kts | 256° |
| 2026-05-06 12:07 | 25.23590 | 64.18484 | 37782 ft | 461 kts | 256° |
| 2026-05-06 12:07 | 25.21681 | 64.11714 | 37782 ft | 461 kts | 256° |
| 2026-05-06 12:08 | 25.19768 | 64.04940 | 37782 ft | 461 kts | 256° |
| 2026-05-06 12:08 | 25.17853 | 63.98173 | 37782 ft | 461 kts | 256° |
| 2026-05-06 12:09 | 25.15936 | 63.91414 | 37780 ft | 461 kts | 255° |
| 2026-05-06 12:09 | 25.14013 | 63.84649 | 37779 ft | 461 kts | 255° |
| 2026-05-06 12:10 | 25.12088 | 63.77887 | 37779 ft | 461 kts | 255° |
| 2026-05-06 12:10 | 25.10176 | 63.71180 | 37779 ft | 462 kts | 255° |
| 2026-05-06 12:11 | 25.08243 | 63.64419 | 37777 ft | 462 kts | 255° |
| 2026-05-06 12:11 | 25.06307 | 63.57656 | 37776 ft | 462 kts | 255° |
| 2026-05-06 12:12 | 25.04365 | 63.50887 | 37779 ft | 462 kts | 255° |
| 2026-05-06 12:12 | 25.02423 | 63.44131 | 37782 ft | 462 kts | 255° |
| 2026-05-06 12:13 | 25.00476 | 63.37368 | 37779 ft | 463 kts | 255° |
| 2026-05-06 12:13 | 24.98513 | 63.30564 | 37781 ft | 464 kts | 255° |
| 2026-05-06 12:14 | 24.96566 | 63.23827 | 37782 ft | 463 kts | 255° |
| 2026-05-06 12:14 | 24.94602 | 63.17049 | 37782 ft | 463 kts | 255° |
| 2026-05-06 12:15 | 24.92637 | 63.10274 | 37778 ft | 463 kts | 255° |
| 2026-05-06 12:15 | 24.90674 | 63.03521 | 37781 ft | 463 kts | 255° |
| 2026-05-06 12:16 | 24.88717 | 62.96799 | 37779 ft | 463 kts | 255° |
| 2026-05-06 12:16 | 24.86742 | 62.90031 | 37779 ft | 463 kts | 255° |
| 2026-05-06 12:17 | 24.84768 | 62.83276 | 37780 ft | 463 kts | 255° |
| 2026-05-06 12:17 | 24.82790 | 62.76519 | 37780 ft | 464 kts | 254° |
| 2026-05-06 12:18 | 24.80815 | 62.69791 | 37779 ft | 464 kts | 254° |